sensor_id;sensor_type;location;lat;lon;timestamp;P1;durP1;ratioP1;P2;durP2;ratioP2
6015;SDS011;3036;49.960;8.454;2023-08-17T00:00:28;5.55;;;1.90;;
6015;SDS011;3036;49.960;8.454;2023-08-17T00:02:55;2.28;;;2.10;;
6015;SDS011;3036;49.960;8.454;2023-08-17T00:05:23;2.47;;;2.38;;
6015;SDS011;3036;49.960;8.454;2023-08-17T00:07:51;2.08;;;2.08;;
6015;SDS011;3036;49.960;8.454;2023-08-17T00:10:18;2.28;;;2.17;;
6015;SDS011;3036;49.960;8.454;2023-08-17T00:12:45;3.40;;;2.28;;
6015;SDS011;3036;49.960;8.454;2023-08-17T00:15:13;3.47;;;2.50;;
6015;SDS011;3036;49.960;8.454;2023-08-17T00:17:40;4.85;;;1.95;;
6015;SDS011;3036;49.960;8.454;2023-08-17T00:20:08;2.13;;;2.03;;
6015;SDS011;3036;49.960;8.454;2023-08-17T00:22:37;2.28;;;2.13;;
6015;SDS011;3036;49.960;8.454;2023-08-17T00:25:04;2.55;;;1.83;;
6015;SDS011;3036;49.960;8.454;2023-08-17T00:27:31;3.05;;;2.13;;
6015;SDS011;3036;49.960;8.454;2023-08-17T00:29:58;2.60;;;2.10;;
6015;SDS011;3036;49.960;8.454;2023-08-17T00:32:25;3.00;;;2.00;;
6015;SDS011;3036;49.960;8.454;2023-08-17T00:34:52;3.58;;;1.70;;
6015;SDS011;3036;49.960;8.454;2023-08-17T00:37:19;1.70;;;1.70;;
6015;SDS011;3036;49.960;8.454;2023-08-17T00:39:48;3.42;;;1.90;;
6015;SDS011;3036;49.960;8.454;2023-08-17T00:42:15;1.90;;;1.90;;
6015;SDS011;3036;49.960;8.454;2023-08-17T00:44:42;3.28;;;2.40;;
6015;SDS011;3036;49.960;8.454;2023-08-17T00:47:09;2.45;;;2.15;;
6015;SDS011;3036;49.960;8.454;2023-08-17T00:49:36;1.98;;;1.85;;
6015;SDS011;3036;49.960;8.454;2023-08-17T00:52:03;2.13;;;2.10;;
6015;SDS011;3036;49.960;8.454;2023-08-17T00:54:30;4.13;;;1.88;;
6015;SDS011;3036;49.960;8.454;2023-08-17T00:56:59;1.42;;;1.42;;
6015;SDS011;3036;49.960;8.454;2023-08-17T00:59:28;3.13;;;2.22;;
6015;SDS011;3036;49.960;8.454;2023-08-17T01:01:55;3.13;;;2.30;;
6015;SDS011;3036;49.960;8.454;2023-08-17T01:04:23;2.05;;;2.05;;
6015;SDS011;3036;49.960;8.454;2023-08-17T01:06:50;1.95;;;1.83;;
6015;SDS011;3036;49.960;8.454;2023-08-17T01:09:18;3.90;;;1.90;;
6015;SDS011;3036;49.960;8.454;2023-08-17T01:11:47;1.98;;;1.92;;
6015;SDS011;3036;49.960;8.454;2023-08-17T01:14:30;4.45;;;2.08;;
6015;SDS011;3036;49.960;8.454;2023-08-17T01:17:00;2.20;;;2.00;;
6015;SDS011;3036;49.960;8.454;2023-08-17T01:19:30;3.83;;;2.00;;
6015;SDS011;3036;49.960;8.454;2023-08-17T01:22:00;2.03;;;2.03;;
6015;SDS011;3036;49.960;8.454;2023-08-17T01:24:28;3.88;;;1.80;;
6015;SDS011;3036;49.960;8.454;2023-08-17T01:26:55;5.03;;;2.60;;
6015;SDS011;3036;49.960;8.454;2023-08-17T01:29:22;4.95;;;2.63;;
6015;SDS011;3036;49.960;8.454;2023-08-17T01:31:51;2.60;;;2.00;;
6015;SDS011;3036;49.960;8.454;2023-08-17T01:34:20;2.80;;;2.28;;
6015;SDS011;3036;49.960;8.454;2023-08-17T01:36:50;2.95;;;2.22;;
6015;SDS011;3036;49.960;8.454;2023-08-17T01:39:19;3.25;;;1.90;;
6015;SDS011;3036;49.960;8.454;2023-08-17T01:41:49;3.03;;;2.83;;
6015;SDS011;3036;49.960;8.454;2023-08-17T01:44:18;6.30;;;3.15;;
6015;SDS011;3036;49.960;8.454;2023-08-17T01:46:45;2.97;;;2.70;;
6015;SDS011;3036;49.960;8.454;2023-08-17T01:49:12;7.68;;;3.20;;
6015;SDS011;3036;49.960;8.454;2023-08-17T01:51:39;6.78;;;2.80;;
6015;SDS011;3036;49.960;8.454;2023-08-17T01:54:06;5.25;;;2.75;;
6015;SDS011;3036;49.960;8.454;2023-08-17T01:56:33;7.93;;;2.83;;
6015;SDS011;3036;49.960;8.454;2023-08-17T01:59:02;8.25;;;2.40;;
6015;SDS011;3036;49.960;8.454;2023-08-17T02:01:29;3.13;;;2.17;;
6015;SDS011;3036;49.960;8.454;2023-08-17T02:03:56;4.85;;;2.35;;
6015;SDS011;3036;49.960;8.454;2023-08-17T02:06:27;3.08;;;2.80;;
6015;SDS011;3036;49.960;8.454;2023-08-17T02:08:54;3.28;;;3.08;;
6015;SDS011;3036;49.960;8.454;2023-08-17T02:11:21;13.25;;;3.60;;
6015;SDS011;3036;49.960;8.454;2023-08-17T02:13:48;3.58;;;3.28;;
6015;SDS011;3036;49.960;8.454;2023-08-17T02:16:16;3.63;;;3.38;;
6015;SDS011;3036;49.960;8.454;2023-08-17T02:18:43;6.88;;;4.68;;
6015;SDS011;3036;49.960;8.454;2023-08-17T02:21:10;5.45;;;4.70;;
6015;SDS011;3036;49.960;8.454;2023-08-17T02:23:37;6.40;;;3.85;;
6015;SDS011;3036;49.960;8.454;2023-08-17T02:26:04;4.22;;;3.83;;
6015;SDS011;3036;49.960;8.454;2023-08-17T02:28:31;5.47;;;5.07;;
6015;SDS011;3036;49.960;8.454;2023-08-17T02:30:58;5.85;;;4.68;;
6015;SDS011;3036;49.960;8.454;2023-08-17T02:33:27;4.95;;;4.43;;
6015;SDS011;3036;49.960;8.454;2023-08-17T02:35:54;4.43;;;4.13;;
6015;SDS011;3036;49.960;8.454;2023-08-17T02:38:21;5.03;;;3.65;;
6015;SDS011;3036;49.960;8.454;2023-08-17T02:40:48;3.38;;;3.08;;
6015;SDS011;3036;49.960;8.454;2023-08-17T02:43:16;3.58;;;3.33;;
6015;SDS011;3036;49.960;8.454;2023-08-17T02:45:43;3.58;;;3.28;;
6015;SDS011;3036;49.960;8.454;2023-08-17T02:48:10;3.67;;;3.40;;
6015;SDS011;3036;49.960;8.454;2023-08-17T02:50:39;4.22;;;3.33;;
6015;SDS011;3036;49.960;8.454;2023-08-17T02:53:06;2.90;;;2.70;;
6015;SDS011;3036;49.960;8.454;2023-08-17T02:55:33;2.85;;;2.60;;
6015;SDS011;3036;49.960;8.454;2023-08-17T02:58:00;3.72;;;2.78;;
6015;SDS011;3036;49.960;8.454;2023-08-17T03:00:27;2.67;;;2.53;;
6015;SDS011;3036;49.960;8.454;2023-08-17T03:02:54;4.07;;;2.97;;
6015;SDS011;3036;49.960;8.454;2023-08-17T03:05:22;2.83;;;2.72;;
6015;SDS011;3036;49.960;8.454;2023-08-17T03:07:50;2.50;;;2.38;;
6015;SDS011;3036;49.960;8.454;2023-08-17T03:10:17;3.17;;;3.08;;
6015;SDS011;3036;49.960;8.454;2023-08-17T03:12:44;2.80;;;2.70;;
6015;SDS011;3036;49.960;8.454;2023-08-17T03:15:11;2.97;;;2.88;;
6015;SDS011;3036;49.960;8.454;2023-08-17T03:17:38;3.47;;;3.17;;
6015;SDS011;3036;49.960;8.454;2023-08-17T03:20:05;4.25;;;3.08;;
6015;SDS011;3036;49.960;8.454;2023-08-17T03:22:33;3.33;;;3.10;;
6015;SDS011;3036;49.960;8.454;2023-08-17T03:25:01;3.08;;;2.95;;
6015;SDS011;3036;49.960;8.454;2023-08-17T03:27:28;3.72;;;3.53;;
6015;SDS011;3036;49.960;8.454;2023-08-17T03:29:55;3.97;;;3.42;;
6015;SDS011;3036;49.960;8.454;2023-08-17T03:32:22;4.22;;;3.30;;
6015;SDS011;3036;49.960;8.454;2023-08-17T03:34:50;3.05;;;2.95;;
6015;SDS011;3036;49.960;8.454;2023-08-17T03:37:17;4.45;;;3.78;;
6015;SDS011;3036;49.960;8.454;2023-08-17T03:39:44;4.35;;;3.95;;
6015;SDS011;3036;49.960;8.454;2023-08-17T03:42:12;4.40;;;4.00;;
6015;SDS011;3036;49.960;8.454;2023-08-17T03:44:39;4.10;;;3.90;;
6015;SDS011;3036;49.960;8.454;2023-08-17T03:47:06;4.28;;;3.88;;
6015;SDS011;3036;49.960;8.454;2023-08-17T03:49:33;4.00;;;3.70;;
6015;SDS011;3036;49.960;8.454;2023-08-17T03:52:00;5.80;;;3.85;;
6015;SDS011;3036;49.960;8.454;2023-08-17T03:54:27;4.03;;;3.72;;
6015;SDS011;3036;49.960;8.454;2023-08-17T03:56:54;4.50;;;4.10;;
6015;SDS011;3036;49.960;8.454;2023-08-17T03:59:23;4.45;;;3.50;;
6015;SDS011;3036;49.960;8.454;2023-08-17T04:01:50;4.53;;;3.72;;
6015;SDS011;3036;49.960;8.454;2023-08-17T04:04:17;4.00;;;3.65;;
6015;SDS011;3036;49.960;8.454;2023-08-17T04:06:44;3.60;;;3.40;;
6015;SDS011;3036;49.960;8.454;2023-08-17T04:09:11;4.25;;;3.92;;
6015;SDS011;3036;49.960;8.454;2023-08-17T04:11:38;4.00;;;3.70;;
6015;SDS011;3036;49.960;8.454;2023-08-17T04:14:05;4.38;;;3.80;;
6015;SDS011;3036;49.960;8.454;2023-08-17T04:16:35;3.97;;;3.72;;
6015;SDS011;3036;49.960;8.454;2023-08-17T04:19:02;3.67;;;3.47;;
6015;SDS011;3036;49.960;8.454;2023-08-17T04:21:30;5.13;;;4.28;;
6015;SDS011;3036;49.960;8.454;2023-08-17T04:23:57;3.88;;;3.47;;
6015;SDS011;3036;49.960;8.454;2023-08-17T04:26:24;3.80;;;3.60;;
6015;SDS011;3036;49.960;8.454;2023-08-17T04:28:51;4.72;;;4.00;;
6015;SDS011;3036;49.960;8.454;2023-08-17T04:31:18;4.00;;;3.70;;
6015;SDS011;3036;49.960;8.454;2023-08-17T04:33:46;4.18;;;3.65;;
6015;SDS011;3036;49.960;8.454;2023-08-17T04:36:13;3.35;;;3.20;;
6015;SDS011;3036;49.960;8.454;2023-08-17T04:38:43;7.43;;;3.75;;
6015;SDS011;3036;49.960;8.454;2023-08-17T04:41:13;4.68;;;4.07;;
6015;SDS011;3036;49.960;8.454;2023-08-17T04:43:40;3.92;;;3.53;;
6015;SDS011;3036;49.960;8.454;2023-08-17T04:46:08;5.28;;;3.92;;
6015;SDS011;3036;49.960;8.454;2023-08-17T04:48:35;3.75;;;3.53;;
6015;SDS011;3036;49.960;8.454;2023-08-17T04:51:03;4.53;;;3.80;;
6015;SDS011;3036;49.960;8.454;2023-08-17T04:53:30;4.55;;;3.80;;
6015;SDS011;3036;49.960;8.454;2023-08-17T04:55:58;4.60;;;3.97;;
6015;SDS011;3036;49.960;8.454;2023-08-17T04:58:25;4.35;;;4.05;;
6015;SDS011;3036;49.960;8.454;2023-08-17T05:00:52;4.40;;;4.00;;
6015;SDS011;3036;49.960;8.454;2023-08-17T05:03:19;4.35;;;3.95;;
6015;SDS011;3036;49.960;8.454;2023-08-17T05:05:46;4.18;;;3.72;;
6015;SDS011;3036;49.960;8.454;2023-08-17T05:08:14;4.25;;;3.95;;
6015;SDS011;3036;49.960;8.454;2023-08-17T05:10:41;4.28;;;3.95;;
6015;SDS011;3036;49.960;8.454;2023-08-17T05:13:08;4.32;;;3.65;;
6015;SDS011;3036;49.960;8.454;2023-08-17T05:15:35;3.78;;;3.58;;
6015;SDS011;3036;49.960;8.454;2023-08-17T05:18:02;3.58;;;3.25;;
6015;SDS011;3036;49.960;8.454;2023-08-17T05:20:30;5.00;;;4.30;;
6015;SDS011;3036;49.960;8.454;2023-08-17T05:22:57;6.05;;;3.85;;
6015;SDS011;3036;49.960;8.454;2023-08-17T05:25:25;7.18;;;3.75;;
6015;SDS011;3036;49.960;8.454;2023-08-17T05:27:54;5.10;;;3.25;;
6015;SDS011;3036;49.960;8.454;2023-08-17T05:30:21;5.00;;;3.35;;
6015;SDS011;3036;49.960;8.454;2023-08-17T05:32:48;4.00;;;3.50;;
6015;SDS011;3036;49.960;8.454;2023-08-17T05:35:15;5.05;;;3.90;;
6015;SDS011;3036;49.960;8.454;2023-08-17T05:37:42;3.75;;;3.22;;
6015;SDS011;3036;49.960;8.454;2023-08-17T05:40:10;4.38;;;4.07;;
6015;SDS011;3036;49.960;8.454;2023-08-17T05:42:38;3.95;;;3.58;;
6015;SDS011;3036;49.960;8.454;2023-08-17T05:45:06;3.70;;;3.50;;
6015;SDS011;3036;49.960;8.454;2023-08-17T05:47:33;3.75;;;3.50;;
6015;SDS011;3036;49.960;8.454;2023-08-17T05:50:00;5.30;;;3.50;;
6015;SDS011;3036;49.960;8.454;2023-08-17T05:52:27;3.90;;;3.20;;
6015;SDS011;3036;49.960;8.454;2023-08-17T05:54:54;3.38;;;3.17;;
6015;SDS011;3036;49.960;8.454;2023-08-17T05:57:21;3.20;;;2.90;;
6015;SDS011;3036;49.960;8.454;2023-08-17T05:59:50;6.78;;;3.50;;
6015;SDS011;3036;49.960;8.454;2023-08-17T06:02:17;4.40;;;3.13;;
6015;SDS011;3036;49.960;8.454;2023-08-17T06:04:44;3.65;;;3.33;;
6015;SDS011;3036;49.960;8.454;2023-08-17T06:07:11;3.88;;;3.53;;
6015;SDS011;3036;49.960;8.454;2023-08-17T06:09:38;4.88;;;3.90;;
6015;SDS011;3036;49.960;8.454;2023-08-17T06:12:05;5.40;;;4.20;;
6015;SDS011;3036;49.960;8.454;2023-08-17T06:14:32;5.68;;;3.90;;
6015;SDS011;3036;49.960;8.454;2023-08-17T06:17:01;4.93;;;4.43;;
6015;SDS011;3036;49.960;8.454;2023-08-17T06:19:28;4.38;;;3.85;;
6015;SDS011;3036;49.960;8.454;2023-08-17T06:21:55;7.50;;;5.95;;
6015;SDS011;3036;49.960;8.454;2023-08-17T06:24:23;9.68;;;6.07;;
6015;SDS011;3036;49.960;8.454;2023-08-17T06:26:50;5.32;;;4.82;;
6015;SDS011;3036;49.960;8.454;2023-08-17T06:29:17;8.20;;;4.93;;
6015;SDS011;3036;49.960;8.454;2023-08-17T06:31:44;6.65;;;5.72;;
6015;SDS011;3036;49.960;8.454;2023-08-17T06:34:12;8.75;;;6.55;;
6015;SDS011;3036;49.960;8.454;2023-08-17T06:36:40;11.25;;;6.50;;
6015;SDS011;3036;49.960;8.454;2023-08-17T06:39:07;10.55;;;7.30;;
6015;SDS011;3036;49.960;8.454;2023-08-17T06:41:34;9.00;;;7.70;;
6015;SDS011;3036;49.960;8.454;2023-08-17T06:44:01;9.50;;;6.82;;
6015;SDS011;3036;49.960;8.454;2023-08-17T06:46:28;8.30;;;7.40;;
6015;SDS011;3036;49.960;8.454;2023-08-17T06:48:56;9.15;;;7.47;;
6015;SDS011;3036;49.960;8.454;2023-08-17T06:51:24;11.27;;;7.82;;
6015;SDS011;3036;49.960;8.454;2023-08-17T06:53:51;10.23;;;7.03;;
6015;SDS011;3036;49.960;8.454;2023-08-17T06:56:18;10.90;;;7.22;;
6015;SDS011;3036;49.960;8.454;2023-08-17T06:58:45;9.73;;;7.38;;
6015;SDS011;3036;49.960;8.454;2023-08-17T07:01:12;8.52;;;6.30;;
6015;SDS011;3036;49.960;8.454;2023-08-17T07:03:39;8.05;;;6.07;;
6015;SDS011;3036;49.960;8.454;2023-08-17T07:06:06;5.43;;;4.95;;
6015;SDS011;3036;49.960;8.454;2023-08-17T07:08:36;7.00;;;5.05;;
6015;SDS011;3036;49.960;8.454;2023-08-17T07:11:04;5.70;;;5.30;;
6015;SDS011;3036;49.960;8.454;2023-08-17T07:13:33;8.50;;;5.15;;
6015;SDS011;3036;49.960;8.454;2023-08-17T07:16:00;4.80;;;4.40;;
6015;SDS011;3036;49.960;8.454;2023-08-17T07:18:27;4.15;;;3.95;;
6015;SDS011;3036;49.960;8.454;2023-08-17T07:20:54;3.83;;;3.63;;
6015;SDS011;3036;49.960;8.454;2023-08-17T07:23:21;5.00;;;4.22;;
6015;SDS011;3036;49.960;8.454;2023-08-17T07:25:50;4.97;;;4.50;;
6015;SDS011;3036;49.960;8.454;2023-08-17T07:28:17;4.47;;;4.20;;
6015;SDS011;3036;49.960;8.454;2023-08-17T07:30:44;4.50;;;4.20;;
6015;SDS011;3036;49.960;8.454;2023-08-17T07:33:11;5.57;;;4.38;;
6015;SDS011;3036;49.960;8.454;2023-08-17T07:35:38;4.30;;;4.03;;
6015;SDS011;3036;49.960;8.454;2023-08-17T07:38:05;5.30;;;4.55;;
6015;SDS011;3036;49.960;8.454;2023-08-17T07:40:32;4.28;;;4.00;;
6015;SDS011;3036;49.960;8.454;2023-08-17T07:43:01;3.80;;;3.60;;
6015;SDS011;3036;49.960;8.454;2023-08-17T07:45:28;6.78;;;5.60;;
6015;SDS011;3036;49.960;8.454;2023-08-17T07:47:55;6.63;;;6.03;;
6015;SDS011;3036;49.960;8.454;2023-08-17T07:50:22;8.20;;;6.32;;
6015;SDS011;3036;49.960;8.454;2023-08-17T07:52:49;4.10;;;3.90;;
6015;SDS011;3036;49.960;8.454;2023-08-17T07:55:16;7.00;;;6.28;;
6015;SDS011;3036;49.960;8.454;2023-08-17T07:57:43;7.25;;;5.10;;
6015;SDS011;3036;49.960;8.454;2023-08-17T08:00:12;5.40;;;4.60;;
6015;SDS011;3036;49.960;8.454;2023-08-17T08:02:39;6.75;;;4.53;;
6015;SDS011;3036;49.960;8.454;2023-08-17T08:05:06;5.60;;;5.10;;
6015;SDS011;3036;49.960;8.454;2023-08-17T08:07:33;5.65;;;5.25;;
6015;SDS011;3036;49.960;8.454;2023-08-17T08:10:02;5.63;;;5.22;;
6015;SDS011;3036;49.960;8.454;2023-08-17T08:12:29;5.47;;;5.15;;
6015;SDS011;3036;49.960;8.454;2023-08-17T08:14:56;7.53;;;5.15;;
6015;SDS011;3036;49.960;8.454;2023-08-17T08:17:25;6.40;;;5.80;;
6015;SDS011;3036;49.960;8.454;2023-08-17T08:19:54;7.07;;;6.32;;
6015;SDS011;3036;49.960;8.454;2023-08-17T08:22:21;7.53;;;6.70;;
6015;SDS011;3036;49.960;8.454;2023-08-17T08:24:48;7.18;;;6.57;;
6015;SDS011;3036;49.960;8.454;2023-08-17T08:27:15;9.20;;;7.18;;
6015;SDS011;3036;49.960;8.454;2023-08-17T08:29:42;8.95;;;7.45;;
6015;SDS011;3036;49.960;8.454;2023-08-17T08:32:09;7.72;;;7.03;;
6015;SDS011;3036;49.960;8.454;2023-08-17T08:34:39;7.90;;;7.15;;
6015;SDS011;3036;49.960;8.454;2023-08-17T08:37:06;7.75;;;7.03;;
6015;SDS011;3036;49.960;8.454;2023-08-17T08:39:33;7.72;;;7.00;;
6015;SDS011;3036;49.960;8.454;2023-08-17T08:42:14;7.72;;;6.95;;
6015;SDS011;3036;49.960;8.454;2023-08-17T08:44:41;12.32;;;8.75;;
6015;SDS011;3036;49.960;8.454;2023-08-17T08:47:08;10.13;;;8.25;;
6015;SDS011;3036;49.960;8.454;2023-08-17T08:49:38;9.15;;;8.27;;
6015;SDS011;3036;49.960;8.454;2023-08-17T08:52:06;8.93;;;8.13;;
6015;SDS011;3036;49.960;8.454;2023-08-17T08:54:36;8.43;;;7.72;;
6015;SDS011;3036;49.960;8.454;2023-08-17T08:57:08;8.15;;;7.43;;
6015;SDS011;3036;49.960;8.454;2023-08-17T08:59:39;9.23;;;8.43;;
6015;SDS011;3036;49.960;8.454;2023-08-17T09:02:09;8.75;;;7.70;;
6015;SDS011;3036;49.960;8.454;2023-08-17T09:04:38;8.88;;;8.18;;
6015;SDS011;3036;49.960;8.454;2023-08-17T09:07:06;9.30;;;8.40;;
6015;SDS011;3036;49.960;8.454;2023-08-17T09:09:33;7.95;;;7.25;;
6015;SDS011;3036;49.960;8.454;2023-08-17T09:12:00;7.70;;;7.00;;
6015;SDS011;3036;49.960;8.454;2023-08-17T09:14:28;9.15;;;8.32;;
6015;SDS011;3036;49.960;8.454;2023-08-17T09:16:55;8.25;;;7.45;;
6015;SDS011;3036;49.960;8.454;2023-08-17T09:19:23;8.38;;;7.57;;
6015;SDS011;3036;49.960;8.454;2023-08-17T09:21:52;7.35;;;6.82;;
6015;SDS011;3036;49.960;8.454;2023-08-17T09:24:19;6.75;;;6.28;;
6015;SDS011;3036;49.960;8.454;2023-08-17T09:26:47;7.10;;;6.60;;
6015;SDS011;3036;49.960;8.454;2023-08-17T09:29:16;9.50;;;6.18;;
6015;SDS011;3036;49.960;8.454;2023-08-17T09:31:43;5.38;;;5.07;;
6015;SDS011;3036;49.960;8.454;2023-08-17T09:34:10;4.95;;;4.75;;
6015;SDS011;3036;49.960;8.454;2023-08-17T09:36:38;5.97;;;5.57;;
6015;SDS011;3036;49.960;8.454;2023-08-17T09:39:07;5.40;;;4.95;;
6015;SDS011;3036;49.960;8.454;2023-08-17T09:41:37;4.97;;;4.70;;
6015;SDS011;3036;49.960;8.454;2023-08-17T09:44:06;5.30;;;5.00;;
6015;SDS011;3036;49.960;8.454;2023-08-17T09:46:33;4.95;;;4.55;;
6015;SDS011;3036;49.960;8.454;2023-08-17T09:49:01;4.65;;;4.45;;
6015;SDS011;3036;49.960;8.454;2023-08-17T09:51:30;5.05;;;4.65;;
6015;SDS011;3036;49.960;8.454;2023-08-17T09:53:57;4.55;;;4.35;;
6015;SDS011;3036;49.960;8.454;2023-08-17T09:56:25;4.90;;;4.70;;
6015;SDS011;3036;49.960;8.454;2023-08-17T09:58:54;5.00;;;4.60;;
6015;SDS011;3036;49.960;8.454;2023-08-17T10:01:21;4.60;;;4.30;;
6015;SDS011;3036;49.960;8.454;2023-08-17T10:03:49;3.95;;;3.85;;
6015;SDS011;3036;49.960;8.454;2023-08-17T10:06:17;3.60;;;3.45;;
6015;SDS011;3036;49.960;8.454;2023-08-17T10:08:47;3.53;;;3.42;;
6015;SDS011;3036;49.960;8.454;2023-08-17T10:11:18;3.38;;;3.28;;
6015;SDS011;3036;49.960;8.454;2023-08-17T10:13:48;3.30;;;3.20;;
6015;SDS011;3036;49.960;8.454;2023-08-17T10:16:21;3.75;;;3.63;;
6015;SDS011;3036;49.960;8.454;2023-08-17T10:18:50;3.70;;;3.50;;
6015;SDS011;3036;49.960;8.454;2023-08-17T10:21:25;3.08;;;2.92;;
6015;SDS011;3036;49.960;8.454;2023-08-17T10:23:54;3.95;;;3.78;;
6015;SDS011;3036;49.960;8.454;2023-08-17T10:26:22;3.53;;;3.42;;
6015;SDS011;3036;49.960;8.454;2023-08-17T10:28:51;3.40;;;3.28;;
6015;SDS011;3036;49.960;8.454;2023-08-17T10:31:19;3.80;;;3.42;;
6015;SDS011;3036;49.960;8.454;2023-08-17T10:33:47;3.90;;;3.67;;
6015;SDS011;3036;49.960;8.454;2023-08-17T10:36:14;3.42;;;3.22;;
6015;SDS011;3036;49.960;8.454;2023-08-17T10:38:41;3.22;;;3.10;;
6015;SDS011;3036;49.960;8.454;2023-08-17T10:41:09;2.78;;;2.78;;
6015;SDS011;3036;49.960;8.454;2023-08-17T10:43:57;3.20;;;3.10;;
6015;SDS011;3036;49.960;8.454;2023-08-17T10:46:32;3.13;;;2.92;;
6015;SDS011;3036;49.960;8.454;2023-08-17T10:49:01;3.30;;;3.20;;
6015;SDS011;3036;49.960;8.454;2023-08-17T10:51:28;3.03;;;2.92;;
6015;SDS011;3036;49.960;8.454;2023-08-17T10:53:55;3.40;;;3.22;;
6015;SDS011;3036;49.960;8.454;2023-08-17T10:56:26;3.15;;;3.00;;
6015;SDS011;3036;49.960;8.454;2023-08-17T10:58:54;3.10;;;2.90;;
6015;SDS011;3036;49.960;8.454;2023-08-17T11:01:32;3.15;;;2.92;;
6015;SDS011;3036;49.960;8.454;2023-08-17T11:04:10;2.50;;;2.42;;
6015;SDS011;3036;49.960;8.454;2023-08-17T11:06:37;2.63;;;2.50;;
6015;SDS011;3036;49.960;8.454;2023-08-17T11:09:06;2.97;;;2.78;;
6015;SDS011;3036;49.960;8.454;2023-08-17T11:11:33;4.97;;;2.88;;
6015;SDS011;3036;49.960;8.454;2023-08-17T11:14:01;2.80;;;2.70;;
6015;SDS011;3036;49.960;8.454;2023-08-17T11:16:28;2.72;;;2.63;;
6015;SDS011;3036;49.960;8.454;2023-08-17T11:19:08;2.60;;;2.50;;
6015;SDS011;3036;49.960;8.454;2023-08-17T11:21:37;2.83;;;2.60;;
6015;SDS011;3036;49.960;8.454;2023-08-17T11:24:04;2.25;;;2.25;;
6015;SDS011;3036;49.960;8.454;2023-08-17T11:26:34;2.53;;;2.33;;
6015;SDS011;3036;49.960;8.454;2023-08-17T11:29:02;2.38;;;2.28;;
6015;SDS011;3036;49.960;8.454;2023-08-17T11:31:31;5.07;;;2.40;;
6015;SDS011;3036;49.960;8.454;2023-08-17T11:33:59;2.33;;;2.22;;
6015;SDS011;3036;49.960;8.454;2023-08-17T11:36:28;2.20;;;2.20;;
6015;SDS011;3036;49.960;8.454;2023-08-17T11:38:57;1.90;;;1.83;;
6015;SDS011;3036;49.960;8.454;2023-08-17T11:41:24;2.00;;;2.00;;
6015;SDS011;3036;49.960;8.454;2023-08-17T11:43:51;2.30;;;2.20;;
6015;SDS011;3036;49.960;8.454;2023-08-17T11:46:20;2.13;;;2.03;;
6015;SDS011;3036;49.960;8.454;2023-08-17T11:48:47;2.58;;;2.38;;
6015;SDS011;3036;49.960;8.454;2023-08-17T11:51:15;2.15;;;1.83;;
6015;SDS011;3036;49.960;8.454;2023-08-17T11:53:44;2.60;;;2.40;;
6015;SDS011;3036;49.960;8.454;2023-08-17T11:56:11;4.07;;;2.65;;
6015;SDS011;3036;49.960;8.454;2023-08-17T11:58:42;1.95;;;1.85;;
6015;SDS011;3036;49.960;8.454;2023-08-17T12:01:09;2.00;;;2.00;;
6015;SDS011;3036;49.960;8.454;2023-08-17T12:03:37;2.05;;;1.88;;
6015;SDS011;3036;49.960;8.454;2023-08-17T12:06:05;1.98;;;1.90;;
6015;SDS011;3036;49.960;8.454;2023-08-17T12:08:32;2.25;;;1.90;;
6015;SDS011;3036;49.960;8.454;2023-08-17T12:11:01;1.88;;;1.88;;
6015;SDS011;3036;49.960;8.454;2023-08-17T12:13:29;1.92;;;1.83;;
6015;SDS011;3036;49.960;8.454;2023-08-17T12:15:56;2.40;;;2.10;;
6015;SDS011;3036;49.960;8.454;2023-08-17T12:18:24;2.20;;;2.10;;
6015;SDS011;3036;49.960;8.454;2023-08-17T12:20:52;2.08;;;1.90;;
6015;SDS011;3036;49.960;8.454;2023-08-17T12:23:19;1.92;;;1.80;;
6015;SDS011;3036;49.960;8.454;2023-08-17T12:25:51;2.15;;;1.77;;
6015;SDS011;3036;49.960;8.454;2023-08-17T12:28:20;1.70;;;1.70;;
6015;SDS011;3036;49.960;8.454;2023-08-17T12:30:47;4.47;;;2.00;;
6015;SDS011;3036;49.960;8.454;2023-08-17T12:33:14;4.93;;;1.90;;
6015;SDS011;3036;49.960;8.454;2023-08-17T12:35:41;1.35;;;1.30;;
6015;SDS011;3036;49.960;8.454;2023-08-17T12:38:08;1.40;;;1.40;;
6015;SDS011;3036;49.960;8.454;2023-08-17T12:40:35;1.63;;;1.50;;
6015;SDS011;3036;49.960;8.454;2023-08-17T12:43:02;1.50;;;1.35;;
6015;SDS011;3036;49.960;8.454;2023-08-17T12:45:30;1.55;;;1.55;;
6015;SDS011;3036;49.960;8.454;2023-08-17T12:47:57;2.15;;;1.52;;
6015;SDS011;3036;49.960;8.454;2023-08-17T12:50:24;1.60;;;1.60;;
6015;SDS011;3036;49.960;8.454;2023-08-17T12:52:51;1.50;;;1.50;;
6015;SDS011;3036;49.960;8.454;2023-08-17T12:55:18;1.65;;;1.65;;
6015;SDS011;3036;49.960;8.454;2023-08-17T12:57:45;1.80;;;1.70;;
6015;SDS011;3036;49.960;8.454;2023-08-17T13:00:13;2.08;;;1.98;;
6015;SDS011;3036;49.960;8.454;2023-08-17T13:02:41;1.77;;;1.70;;
6015;SDS011;3036;49.960;8.454;2023-08-17T13:05:10;1.48;;;1.40;;
6015;SDS011;3036;49.960;8.454;2023-08-17T13:07:37;1.75;;;1.75;;
6015;SDS011;3036;49.960;8.454;2023-08-17T13:10:05;2.10;;;2.05;;
6015;SDS011;3036;49.960;8.454;2023-08-17T13:12:32;1.98;;;1.98;;
6015;SDS011;3036;49.960;8.454;2023-08-17T13:14:59;1.83;;;1.73;;
6015;SDS011;3036;49.960;8.454;2023-08-17T13:17:26;2.03;;;1.92;;
6015;SDS011;3036;49.960;8.454;2023-08-17T13:19:54;1.95;;;1.63;;
6015;SDS011;3036;49.960;8.454;2023-08-17T13:22:21;3.38;;;1.73;;
6015;SDS011;3036;49.960;8.454;2023-08-17T13:24:48;2.08;;;1.98;;
6015;SDS011;3036;49.960;8.454;2023-08-17T13:27:16;2.25;;;2.13;;
6015;SDS011;3036;49.960;8.454;2023-08-17T13:29:43;6.55;;;1.80;;
6015;SDS011;3036;49.960;8.454;2023-08-17T13:32:10;1.95;;;1.80;;
6015;SDS011;3036;49.960;8.454;2023-08-17T13:34:37;1.70;;;1.60;;
6015;SDS011;3036;49.960;8.454;2023-08-17T13:37:05;2.88;;;1.90;;
6015;SDS011;3036;49.960;8.454;2023-08-17T13:39:32;1.52;;;1.48;;
6015;SDS011;3036;49.960;8.454;2023-08-17T13:41:59;1.92;;;1.90;;
6015;SDS011;3036;49.960;8.454;2023-08-17T13:44:26;2.15;;;1.60;;
6015;SDS011;3036;49.960;8.454;2023-08-17T13:46:53;1.65;;;1.63;;
6015;SDS011;3036;49.960;8.454;2023-08-17T13:49:23;3.38;;;1.75;;
6015;SDS011;3036;49.960;8.454;2023-08-17T13:51:53;1.88;;;1.88;;
6015;SDS011;3036;49.960;8.454;2023-08-17T13:54:22;1.67;;;1.58;;
6015;SDS011;3036;49.960;8.454;2023-08-17T13:56:50;1.60;;;1.50;;
6015;SDS011;3036;49.960;8.454;2023-08-17T13:59:17;2.13;;;2.03;;
6015;SDS011;3036;49.960;8.454;2023-08-17T14:01:44;1.58;;;1.58;;
6015;SDS011;3036;49.960;8.454;2023-08-17T14:04:11;1.35;;;1.35;;
6015;SDS011;3036;49.960;8.454;2023-08-17T14:06:39;2.47;;;1.50;;
6015;SDS011;3036;49.960;8.454;2023-08-17T14:09:06;7.50;;;1.98;;
6015;SDS011;3036;49.960;8.454;2023-08-17T14:11:35;1.83;;;1.58;;
6015;SDS011;3036;49.960;8.454;2023-08-17T14:14:02;1.80;;;1.70;;
6015;SDS011;3036;49.960;8.454;2023-08-17T14:16:29;1.60;;;1.50;;
6015;SDS011;3036;49.960;8.454;2023-08-17T14:18:57;3.28;;;1.65;;
6015;SDS011;3036;49.960;8.454;2023-08-17T14:21:24;2.17;;;1.70;;
6015;SDS011;3036;49.960;8.454;2023-08-17T14:23:51;1.70;;;1.63;;
6015;SDS011;3036;49.960;8.454;2023-08-17T14:26:18;1.80;;;1.70;;
6015;SDS011;3036;49.960;8.454;2023-08-17T14:28:46;1.50;;;1.50;;
6015;SDS011;3036;49.960;8.454;2023-08-17T14:31:13;1.58;;;1.58;;
6015;SDS011;3036;49.960;8.454;2023-08-17T14:33:42;1.33;;;1.33;;
6015;SDS011;3036;49.960;8.454;2023-08-17T14:36:09;1.42;;;1.35;;
6015;SDS011;3036;49.960;8.454;2023-08-17T14:38:36;1.40;;;1.40;;
6015;SDS011;3036;49.960;8.454;2023-08-17T14:41:03;1.33;;;1.33;;
6015;SDS011;3036;49.960;8.454;2023-08-17T14:43:31;1.55;;;1.48;;
6015;SDS011;3036;49.960;8.454;2023-08-17T14:46:00;1.17;;;1.17;;
6015;SDS011;3036;49.960;8.454;2023-08-17T14:48:27;1.52;;;1.42;;
6015;SDS011;3036;49.960;8.454;2023-08-17T14:50:54;1.88;;;1.45;;
6015;SDS011;3036;49.960;8.454;2023-08-17T14:53:21;1.33;;;1.33;;
6015;SDS011;3036;49.960;8.454;2023-08-17T14:55:51;1.95;;;1.40;;
6015;SDS011;3036;49.960;8.454;2023-08-17T14:58:18;1.40;;;1.40;;
6015;SDS011;3036;49.960;8.454;2023-08-17T15:00:45;1.60;;;1.50;;
6015;SDS011;3036;49.960;8.454;2023-08-17T15:03:14;1.40;;;1.30;;
6015;SDS011;3036;49.960;8.454;2023-08-17T15:05:41;1.35;;;1.15;;
6015;SDS011;3036;49.960;8.454;2023-08-17T15:08:09;1.55;;;1.35;;
6015;SDS011;3036;49.960;8.454;2023-08-17T15:10:36;1.63;;;1.52;;
6015;SDS011;3036;49.960;8.454;2023-08-17T15:13:04;3.30;;;1.58;;
6015;SDS011;3036;49.960;8.454;2023-08-17T15:15:31;2.00;;;1.50;;
6015;SDS011;3036;49.960;8.454;2023-08-17T15:18:00;2.00;;;1.40;;